createdAt,value
2022-09-18T00:01:42.111Z,5.60
2022-09-18T00:04:14.793Z,2.67
2022-09-18T00:06:46.198Z,5.27
2022-09-18T00:09:16.688Z,4.23
2022-09-18T00:11:50.060Z,5.73
2022-09-18T00:14:23.549Z,4.10
2022-09-18T00:16:52.150Z,8.80
2022-09-18T00:19:21.578Z,6.10
2022-09-18T00:21:52.499Z,4.03
2022-09-18T00:24:22.291Z,4.97
2022-09-18T00:26:51.203Z,5.23
2022-09-18T00:29:20.778Z,5.97
2022-09-18T00:31:50.001Z,8.67
2022-09-18T00:34:18.515Z,5.83
2022-09-18T00:36:46.797Z,6.80
2022-09-18T00:39:15.491Z,8.50
2022-09-18T00:41:45.860Z,4.33
2022-09-18T00:44:40.717Z,8.80
2022-09-18T00:47:22.025Z,6.47
2022-09-18T00:49:56.977Z,7.37
2022-09-18T00:52:30.779Z,5.17
2022-09-18T00:55:06.596Z,4.80
2022-09-18T00:57:41.250Z,8.57
2022-09-18T01:00:14.490Z,6.63
2022-09-18T01:02:44.685Z,4.83
2022-09-18T01:05:15.117Z,4.27
2022-09-18T01:08:02.866Z,6.80
2022-09-18T01:10:52.963Z,6.70
2022-09-18T01:13:36.237Z,5.00
2022-09-18T01:16:18.443Z,9.10
2022-09-18T01:19:11.136Z,3.70
2022-09-18T01:21:50.559Z,6.00
2022-09-18T01:24:45.046Z,7.87
2022-09-18T01:27:27.121Z,3.00
2022-09-18T01:30:06.686Z,10.17
2022-09-18T01:32:44.159Z,6.73
2022-09-18T01:38:20.419Z,6.33
2022-09-18T01:40:57.221Z,4.30
2022-09-18T01:43:30.643Z,4.00
2022-09-18T01:46:09.420Z,5.60
2022-09-18T01:48:46.270Z,7.33
2022-09-18T01:51:21.179Z,6.77
2022-09-18T01:53:57.999Z,3.47
2022-09-18T01:56:32.918Z,4.57
2022-09-18T01:59:07.046Z,5.50
2022-09-18T02:01:58.169Z,6.20
2022-09-18T02:04:33.663Z,5.47
2022-09-18T02:07:14.167Z,8.77
2022-09-18T02:09:44.346Z,6.10
2022-09-18T02:12:21.631Z,6.80
2022-09-18T02:14:58.681Z,5.20
2022-09-18T02:17:45.043Z,4.60
2022-09-18T02:20:20.637Z,7.00
2022-09-18T02:22:54.946Z,6.30
2022-09-18T02:25:32.484Z,6.40
2022-09-18T02:28:03.814Z,6.87
2022-09-18T02:30:32.828Z,5.47
2022-09-18T02:33:02.509Z,5.27
2022-09-18T02:35:43.539Z,5.93
2022-09-18T02:38:27.607Z,7.83
2022-09-18T02:41:08.374Z,6.87
2022-09-18T02:43:54.532Z,5.67
2022-09-18T02:46:39.274Z,5.37
2022-09-18T02:49:15.580Z,3.90
2022-09-18T02:51:54.937Z,5.13
2022-09-18T02:54:33.736Z,6.30
2022-09-18T02:57:10.749Z,5.93
2022-09-18T02:59:44.166Z,6.90
2022-09-18T03:02:15.328Z,4.83
2022-09-18T03:04:45.647Z,4.83
2022-09-18T03:07:20.576Z,2.40
2022-09-18T03:09:50.899Z,6.03
2022-09-18T03:12:20.432Z,6.33
2022-09-18T03:14:50.080Z,5.63
2022-09-18T03:17:19.302Z,5.40
2022-09-18T03:19:49.051Z,4.90
2022-09-18T03:22:17.377Z,4.60
2022-09-18T03:24:45.655Z,4.13
2022-09-18T03:27:18.025Z,5.17
2022-09-18T03:29:46.956Z,4.50
2022-09-18T03:32:18.629Z,4.93
2022-09-18T03:34:50.918Z,5.70
2022-09-18T03:37:19.498Z,6.00
2022-09-18T03:39:49.230Z,7.23
2022-09-18T03:42:17.503Z,2.63
2022-09-18T03:44:45.889Z,4.13
2022-09-18T03:47:21.950Z,6.23
2022-09-18T03:49:51.571Z,5.17
2022-09-18T03:52:21.390Z,5.37
2022-09-18T03:55:01.055Z,2.37
2022-09-18T03:57:53.006Z,5.93
2022-09-18T04:00:42.081Z,5.00
2022-09-18T04:03:18.356Z,6.93
2022-09-18T04:06:20.085Z,6.50
2022-09-18T04:09:09.195Z,5.30
2022-09-18T04:11:45.029Z,6.93
2022-09-18T04:14:30.998Z,7.60
2022-09-18T04:17:00.775Z,7.33
2022-09-18T04:19:29.804Z,9.23
2022-09-18T04:22:01.119Z,5.17
2022-09-18T04:24:29.625Z,5.00
2022-09-18T04:26:58.016Z,5.93
2022-09-18T04:29:28.959Z,6.03
2022-09-18T04:31:58.108Z,5.33
2022-09-18T04:34:27.527Z,7.23
2022-09-18T04:36:55.786Z,5.80
2022-09-18T04:39:32.432Z,6.60
2022-09-18T04:42:05.221Z,2.13
2022-09-18T04:44:34.241Z,7.80
2022-09-18T04:47:03.654Z,4.03
2022-09-18T04:49:32.014Z,5.30
2022-09-18T04:52:02.185Z,6.67
2022-09-18T04:54:32.342Z,3.93
2022-09-18T04:57:00.662Z,5.97
2022-09-18T04:59:29.443Z,2.67
2022-09-18T05:02:00.315Z,4.27
2022-09-18T05:04:29.206Z,5.53
2022-09-18T05:07:05.016Z,3.47
2022-09-18T05:09:36.509Z,6.53
2022-09-18T05:12:07.299Z,4.63
2022-09-18T05:14:37.365Z,4.70
2022-09-18T05:17:09.250Z,5.37
2022-09-18T05:19:40.638Z,4.90
2022-09-18T05:22:14.955Z,4.77
2022-09-18T05:24:50.167Z,4.30
2022-09-18T05:27:21.459Z,3.30
2022-09-18T05:29:53.116Z,3.00
2022-09-18T05:32:27.866Z,3.00
2022-09-18T05:34:56.176Z,4.77
2022-09-18T05:37:24.545Z,3.80
2022-09-18T05:39:58.009Z,4.67
2022-09-18T05:42:26.287Z,1.60
2022-09-18T05:44:57.566Z,5.30
2022-09-18T05:47:28.871Z,6.47
2022-09-18T05:49:57.166Z,5.47
2022-09-18T05:52:26.089Z,4.43
2022-09-18T05:54:54.959Z,5.10
2022-09-18T05:57:24.904Z,2.60
2022-09-18T05:59:53.290Z,1.70
2022-09-18T06:02:21.587Z,3.70
2022-09-18T06:05:03.970Z,2.47
2022-09-18T06:07:32.745Z,5.60
2022-09-18T06:10:04.283Z,5.37
2022-09-18T06:12:34.556Z,1.30
2022-09-18T06:15:04.977Z,2.23
2022-09-18T06:17:35.353Z,5.90
2022-09-18T06:20:09.167Z,3.60
2022-09-18T06:22:38.295Z,5.77
2022-09-18T06:25:10.368Z,4.73
2022-09-18T06:27:41.093Z,3.47
2022-09-18T06:30:10.552Z,4.73
2022-09-18T06:32:39.334Z,3.77
2022-09-18T06:35:10.237Z,3.57
2022-09-18T06:37:39.081Z,4.93
2022-09-18T06:40:12.742Z,3.70
2022-09-18T06:43:06.219Z,6.13
2022-09-18T06:46:07.895Z,5.00
2022-09-18T06:48:41.357Z,4.80
2022-09-18T06:51:10.486Z,3.53
2022-09-18T06:54:13.997Z,6.43
2022-09-18T06:56:43.503Z,5.53
2022-09-18T06:59:15.549Z,1.60
2022-09-18T07:01:44.280Z,3.40
2022-09-18T07:04:33.234Z,6.00
2022-09-18T07:07:01.807Z,3.83
2022-09-18T07:09:30.739Z,3.13
2022-09-18T07:12:17.682Z,4.90
2022-09-18T07:14:51.608Z,2.83
2022-09-18T07:17:26.077Z,4.03
2022-09-18T07:19:55.779Z,4.47
2022-09-18T07:22:31.549Z,4.80
2022-09-18T07:24:59.807Z,4.70
2022-09-18T07:27:30.371Z,2.63
2022-09-18T07:30:00.518Z,2.73
2022-09-18T07:32:29.535Z,2.33
2022-09-18T07:34:59.437Z,2.27
2022-09-18T07:37:33.530Z,2.93
2022-09-18T07:40:13.251Z,2.57
2022-09-18T07:43:08.770Z,1.50
2022-09-18T07:45:41.247Z,2.23
2022-09-18T07:48:10.104Z,2.27
2022-09-18T07:50:46.355Z,2.50
2022-09-18T07:53:14.613Z,1.77
2022-09-18T07:55:47.299Z,2.33
2022-09-18T07:58:16.118Z,3.03
2022-09-18T08:01:04.644Z,1.77
2022-09-18T08:03:40.516Z,2.57
2022-09-18T08:06:29.907Z,2.67
2022-09-18T08:09:21.258Z,4.57
2022-09-18T08:12:13.057Z,2.43
2022-09-18T08:15:09.931Z,3.60
2022-09-18T08:18:09.530Z,2.53
2022-09-18T08:20:59.327Z,4.57
2022-09-18T08:23:39.189Z,2.63
2022-09-18T08:26:07.848Z,4.23
2022-09-18T08:28:36.615Z,3.07
2022-09-18T08:31:07.155Z,1.50
2022-09-18T08:33:36.956Z,3.47
2022-09-18T08:36:07.386Z,2.73
2022-09-18T08:38:39.093Z,3.27
2022-09-18T08:41:46.641Z,2.00
2022-09-18T08:44:24.222Z,3.87
2022-09-18T08:47:03.747Z,1.70
2022-09-18T08:49:40.813Z,2.77
2022-09-18T08:52:17.612Z,4.40
2022-09-18T08:55:02.602Z,4.37
2022-09-18T08:57:46.508Z,3.13
2022-09-18T09:00:22.339Z,1.87
2022-09-18T09:03:24.115Z,3.67
2022-09-18T09:06:00.955Z,3.27
2022-09-18T09:09:22.509Z,2.70
2022-09-18T09:12:03.630Z,1.73
2022-09-18T09:15:00.007Z,3.33
2022-09-18T09:17:41.651Z,3.60
2022-09-18T09:20:25.429Z,2.87
2022-09-18T09:23:07.848Z,2.63
2022-09-18T09:25:49.090Z,2.50
2022-09-18T09:28:52.640Z,4.67
2022-09-18T09:31:47.726Z,2.23
2022-09-18T09:34:33.248Z,4.83
2022-09-18T09:37:17.733Z,3.27
2022-09-18T09:39:57.215Z,3.70
2022-09-18T09:42:35.731Z,1.60
2022-09-18T09:45:17.078Z,3.93
2022-09-18T09:47:56.288Z,2.67
2022-09-18T09:50:42.031Z,2.60
2022-09-18T09:53:14.095Z,4.23
2022-09-18T09:56:03.804Z,4.23
2022-09-18T09:58:51.033Z,2.30
2022-09-18T10:01:27.058Z,5.10
2022-09-18T10:04:18.134Z,1.07
2022-09-18T10:06:57.377Z,0.63
2022-09-18T10:09:44.515Z,1.67
2022-09-18T10:12:32.046Z,1.50
2022-09-18T10:15:18.370Z,2.70
2022-09-18T10:17:51.013Z,2.40
2022-09-18T10:20:28.277Z,3.07
2022-09-18T10:23:06.958Z,2.53
2022-09-18T10:25:45.187Z,1.53
2022-09-18T10:28:15.794Z,1.30
2022-09-18T10:30:59.445Z,0.97
2022-09-18T10:33:37.029Z,1.20
2022-09-18T10:36:25.957Z,1.23
2022-09-18T10:38:56.478Z,1.00
2022-09-18T10:41:40.459Z,1.33
2022-09-18T10:44:28.049Z,1.10
2022-09-18T10:47:08.685Z,0.50
2022-09-18T10:49:50.659Z,1.13
2022-09-18T10:52:31.857Z,0.40
2022-09-18T10:55:16.767Z,0.30
2022-09-18T10:58:08.174Z,1.10
2022-09-18T11:00:49.477Z,2.93
2022-09-18T11:03:33.449Z,1.80
2022-09-18T11:06:05.520Z,0.43
2022-09-18T11:08:42.047Z,0.60
2022-09-18T11:11:22.198Z,0.37
2022-09-18T11:13:58.603Z,1.20
2022-09-18T11:16:36.884Z,1.10
2022-09-18T11:19:20.111Z,1.50
2022-09-18T11:21:52.459Z,0.37
2022-09-18T11:24:27.306Z,0.13
2022-09-18T11:27:16.829Z,0.50
2022-09-18T11:29:45.884Z,0.97
2022-09-18T11:32:25.187Z,0.97
2022-09-18T11:35:00.249Z,0.73
2022-09-18T11:37:38.315Z,0.70
2022-09-18T11:40:19.464Z,0.30
2022-09-18T11:42:54.000Z,0.60
2022-09-18T11:45:47.431Z,1.33
2022-09-18T11:48:28.139Z,2.07
2022-09-18T11:51:01.522Z,0.63
2022-09-18T11:53:39.797Z,1.13
2022-09-18T11:56:16.992Z,1.40
2022-09-18T11:58:54.671Z,1.07
2022-09-18T12:01:34.238Z,0.40
2022-09-18T12:04:14.886Z,1.27
2022-09-18T12:06:52.142Z,0.67
2022-09-18T12:09:31.561Z,0.70
2022-09-18T12:12:09.718Z,0.37
2022-09-18T12:14:48.087Z,0.47
2022-09-18T12:17:31.002Z,1.37
2022-09-18T12:20:10.183Z,2.73
2022-09-18T12:22:46.721Z,0.50
2022-09-18T12:25:19.039Z,1.83
2022-09-18T12:28:32.972Z,1.77
2022-09-18T12:31:15.313Z,2.20
2022-09-18T12:33:57.995Z,0.60
2022-09-18T12:37:05.463Z,0.57
2022-09-18T12:40:03.560Z,1.30
2022-09-18T12:42:49.027Z,2.17
2022-09-18T12:45:52.066Z,1.03
2022-09-18T12:48:44.257Z,0.50
2022-09-18T12:51:36.663Z,0.50
2022-09-18T12:54:33.434Z,1.00
2022-09-18T12:57:23.405Z,0.40
2022-09-18T12:59:58.845Z,0.50
2022-09-18T13:02:42.722Z,0.80
2022-09-18T13:05:18.733Z,2.60
2022-09-18T13:07:55.810Z,1.10
2022-09-18T13:10:32.763Z,1.23
2022-09-18T13:13:10.865Z,1.10
2022-09-18T13:15:45.591Z,1.23
2022-09-18T13:18:29.612Z,2.20
2022-09-18T13:21:03.866Z,1.83
2022-09-18T13:23:39.116Z,1.33
2022-09-18T13:26:15.398Z,0.83
2022-09-18T13:28:45.494Z,1.30
2022-09-18T13:31:27.701Z,1.67
2022-09-18T13:34:00.766Z,1.20
2022-09-18T13:36:33.745Z,2.23
2022-09-18T13:39:06.057Z,0.27
2022-09-18T13:41:48.044Z,0.73
2022-09-18T13:44:22.224Z,0.70
2022-09-18T13:46:53.215Z,0.30
2022-09-18T13:49:31.929Z,1.17
2022-09-18T13:52:43.335Z,0.83
2022-09-18T13:55:36.783Z,0.97
2022-09-18T13:58:47.962Z,0.40
2022-09-18T14:02:03.421Z,0.80
2022-09-18T14:05:21.739Z,0.50
2022-09-18T14:08:04.033Z,1.53
2022-09-18T14:10:59.461Z,0.50
2022-09-18T14:13:43.068Z,0.60
2022-09-18T14:16:26.118Z,1.03
2022-09-18T14:19:03.066Z,1.50
2022-09-18T14:21:34.509Z,0.50
2022-09-18T14:24:57.655Z,1.07
2022-09-18T14:27:37.987Z,0.90
2022-09-18T14:30:19.892Z,1.60
2022-09-18T14:33:16.794Z,1.43
2022-09-18T14:35:55.381Z,0.30
2022-09-18T14:38:29.196Z,0.50
2022-09-18T14:41:07.051Z,1.23
2022-09-18T14:43:38.350Z,1.70
2022-09-18T14:46:18.631Z,0.80
2022-09-18T14:48:47.155Z,0.97
2022-09-18T14:51:22.494Z,1.70
2022-09-18T14:53:55.969Z,2.23
2022-09-18T14:56:29.800Z,1.53
2022-09-18T14:59:01.534Z,1.00
2022-09-18T15:01:33.780Z,1.63
2022-09-18T15:04:07.503Z,3.10
2022-09-18T15:06:41.072Z,0.80
2022-09-18T15:09:14.200Z,2.27
2022-09-18T15:12:01.862Z,1.80
2022-09-18T15:14:41.811Z,2.87
2022-09-18T15:17:21.123Z,3.50
2022-09-18T15:19:58.619Z,1.93
2022-09-18T15:22:28.290Z,1.33
2022-09-18T15:25:00.659Z,2.53
2022-09-18T15:27:30.974Z,1.30
2022-09-18T15:30:05.141Z,3.03
2022-09-18T15:32:42.405Z,1.23
2022-09-18T15:35:21.168Z,1.60
2022-09-18T15:37:54.381Z,1.40
2022-09-18T15:40:30.130Z,1.13
2022-09-18T15:43:03.516Z,3.10
2022-09-18T15:45:35.346Z,2.07
2022-09-18T15:48:35.574Z,1.80
2022-09-18T15:51:10.258Z,1.57
2022-09-18T15:53:39.690Z,3.07
2022-09-18T15:56:20.795Z,0.70
2022-09-18T15:58:57.932Z,2.47
2022-09-18T16:01:35.278Z,1.40
2022-09-18T16:04:17.874Z,1.90
2022-09-18T16:06:56.795Z,3.43
2022-09-18T16:09:35.615Z,2.03
2022-09-18T16:12:36.180Z,0.90
2022-09-18T16:15:19.254Z,2.57
2022-09-18T16:18:19.824Z,1.13
2022-09-18T16:21:05.612Z,3.40
2022-09-18T16:23:37.068Z,2.67
2022-09-18T16:26:11.519Z,3.33
2022-09-18T16:28:44.692Z,1.87
2022-09-18T16:31:16.043Z,3.67
2022-09-18T16:33:52.400Z,4.27
2022-09-18T16:36:31.355Z,4.50
2022-09-18T16:39:02.236Z,3.70
2022-09-18T16:41:31.998Z,3.30
2022-09-18T16:44:01.603Z,4.43
2022-09-18T16:46:38.450Z,3.10
2022-09-18T16:49:07.880Z,2.03
2022-09-18T16:51:37.681Z,1.20
2022-09-18T16:54:07.381Z,1.97
2022-09-18T16:56:43.649Z,4.40
2022-09-18T16:59:14.171Z,2.57
2022-09-18T17:02:00.511Z,1.43
2022-09-18T17:04:31.369Z,1.80
2022-09-18T17:07:01.603Z,2.03
2022-09-18T17:09:31.404Z,1.47
2022-09-18T17:12:04.930Z,1.90
2022-09-18T17:14:34.586Z,2.63
2022-09-18T17:17:04.157Z,1.83
2022-09-18T17:19:32.600Z,1.37
2022-09-18T17:22:02.481Z,2.40
2022-09-18T17:24:30.711Z,1.57
2022-09-18T17:26:59.677Z,1.67
2022-09-18T17:29:28.745Z,2.97
2022-09-18T17:31:57.695Z,5.37
2022-09-18T17:34:26.142Z,4.83
2022-09-18T17:36:54.423Z,3.70
2022-09-18T17:39:24.044Z,4.80
2022-09-18T17:41:52.697Z,4.00
2022-09-18T17:44:21.512Z,3.87
2022-09-18T17:46:52.496Z,6.40
2022-09-18T17:49:21.781Z,7.70
2022-09-18T17:51:50.625Z,6.07
2022-09-18T17:54:19.757Z,6.43
2022-09-18T17:56:49.327Z,4.83
2022-09-18T17:59:18.218Z,6.37
2022-09-18T18:01:48.671Z,8.37
2022-09-18T18:04:18.234Z,10.23
2022-09-18T18:06:48.955Z,7.97
2022-09-18T18:09:17.557Z,7.03
2022-09-18T18:11:46.694Z,5.40
2022-09-18T18:14:19.803Z,6.10
2022-09-18T18:16:52.376Z,4.93
2022-09-18T18:19:21.318Z,3.43
2022-09-18T18:21:49.757Z,2.27
2022-09-18T18:24:18.953Z,2.43
2022-09-18T18:26:48.784Z,1.63
2022-09-18T18:29:20.461Z,2.23
2022-09-18T18:31:50.332Z,4.80
2022-09-18T18:34:21.056Z,2.40
2022-09-18T18:36:51.254Z,2.80
2022-09-18T18:39:20.813Z,3.83
2022-09-18T18:41:50.304Z,8.67
2022-09-18T18:44:20.442Z,28.37
2022-09-18T18:46:50.091Z,18.10
2022-09-18T18:49:18.962Z,4.10
2022-09-18T18:51:51.747Z,4.43
2022-09-18T18:54:22.999Z,4.33
2022-09-18T18:56:51.631Z,6.00
2022-09-18T18:59:24.281Z,7.47
2022-09-18T19:01:56.923Z,5.13
2022-09-18T19:04:26.926Z,5.53
2022-09-18T19:06:56.498Z,4.73
2022-09-18T19:09:28.514Z,2.20
2022-09-18T19:11:57.507Z,2.37
2022-09-18T19:14:29.659Z,4.30
2022-09-18T19:16:59.087Z,1.70
2022-09-18T19:19:29.241Z,3.83
2022-09-18T19:21:59.988Z,5.30
2022-09-18T19:24:30.006Z,4.13
2022-09-18T19:26:59.362Z,4.03
2022-09-18T19:29:30.525Z,3.67
2022-09-18T19:32:00.262Z,1.27
2022-09-18T19:34:29.394Z,3.17
2022-09-18T19:36:59.262Z,2.13
2022-09-18T19:39:28.405Z,1.00
2022-09-18T19:42:01.968Z,0.63
2022-09-18T19:44:38.276Z,1.63
2022-09-18T19:47:21.198Z,2.40
2022-09-18T19:49:50.899Z,2.17
2022-09-18T19:52:24.085Z,1.60
2022-09-18T19:54:54.520Z,3.33
2022-09-18T19:57:24.685Z,4.20
2022-09-18T19:59:57.001Z,2.90
2022-09-18T20:02:26.361Z,2.17
2022-09-18T20:04:54.651Z,2.10
2022-09-18T20:07:23.478Z,3.20
2022-09-18T20:09:51.871Z,0.70
2022-09-18T20:12:20.573Z,2.63
2022-09-18T20:14:49.375Z,1.77
2022-09-18T20:17:19.195Z,1.70
2022-09-18T20:19:47.465Z,1.50
2022-09-18T20:22:15.780Z,3.90
2022-09-18T20:24:44.065Z,1.37
2022-09-18T20:27:12.669Z,2.63
2022-09-18T20:29:41.373Z,1.77
2022-09-18T20:32:09.712Z,2.63
2022-09-18T20:34:40.009Z,0.70
2022-09-18T20:37:10.180Z,1.47
2022-09-18T20:39:39.159Z,2.37
2022-09-18T20:42:08.184Z,4.20
2022-09-18T20:44:36.434Z,2.60
2022-09-18T20:47:06.878Z,3.23
2022-09-18T20:49:39.677Z,2.13
2022-09-18T20:52:14.281Z,2.30
2022-09-18T20:54:42.791Z,0.73
2022-09-18T20:57:12.304Z,3.67
2022-09-18T20:59:41.543Z,1.87
2022-09-18T21:02:10.734Z,4.10
2022-09-18T21:04:39.648Z,2.97
2022-09-18T21:07:09.559Z,1.97
2022-09-18T21:09:38.413Z,2.47
2022-09-18T21:12:07.465Z,1.97
2022-09-18T21:14:36.810Z,2.60
2022-09-18T21:17:10.648Z,2.40
2022-09-18T21:19:39.834Z,2.80
2022-09-18T21:22:09.995Z,2.50
2022-09-18T21:24:38.769Z,1.53
2022-09-18T21:27:09.716Z,1.47
2022-09-18T21:29:40.578Z,0.93
2022-09-18T21:32:09.869Z,0.90
2022-09-18T21:34:38.542Z,1.97
2022-09-18T21:37:12.015Z,1.23
2022-09-18T21:39:42.455Z,3.37
2022-09-18T21:42:10.901Z,3.30
2022-09-18T21:44:39.616Z,1.03
2022-09-18T21:47:10.693Z,1.80
2022-09-18T21:49:39.866Z,3.27
2022-09-18T21:52:09.947Z,1.63
2022-09-18T21:54:39.052Z,1.00
2022-09-18T21:57:07.327Z,3.97
2022-09-18T21:59:35.909Z,1.00
2022-09-18T22:02:04.775Z,1.53
2022-09-18T22:04:34.062Z,1.93
2022-09-18T22:07:06.174Z,3.40
2022-09-18T22:09:38.128Z,2.93
2022-09-18T22:12:08.661Z,1.60
2022-09-18T22:14:38.224Z,1.63
2022-09-18T22:17:09.072Z,1.23
2022-09-18T22:19:41.298Z,1.40
2022-09-18T22:22:10.320Z,1.77
2022-09-18T22:24:40.469Z,2.53
2022-09-18T22:27:10.180Z,0.53
2022-09-18T22:29:43.389Z,0.57
2022-09-18T22:32:12.175Z,1.50
2022-09-18T22:34:41.533Z,2.00
2022-09-18T22:37:11.542Z,1.17
2022-09-18T22:39:41.644Z,0.97
2022-09-18T22:42:10.089Z,1.00
2022-09-18T22:44:39.580Z,5.17
2022-09-18T22:47:09.465Z,1.87
2022-09-18T22:49:38.242Z,1.40
2022-09-18T22:52:07.356Z,2.30
2022-09-18T22:54:35.969Z,1.17
2022-09-18T22:57:06.524Z,1.40
2022-09-18T22:59:35.413Z,0.93
2022-09-18T23:02:07.948Z,3.23
2022-09-18T23:04:36.902Z,1.07
2022-09-18T23:07:05.353Z,2.17
2022-09-18T23:09:33.947Z,1.63
2022-09-18T23:12:02.845Z,1.37
2022-09-18T23:14:33.068Z,1.37
2022-09-18T23:17:02.834Z,3.13
2022-09-18T23:19:34.360Z,0.80
2022-09-18T23:22:03.109Z,0.83
2022-09-18T23:24:32.571Z,4.80
2022-09-18T23:27:01.962Z,2.23
2022-09-18T23:29:32.691Z,2.60
2022-09-18T23:32:01.071Z,3.20
2022-09-18T23:34:33.558Z,0.93
2022-09-18T23:37:02.704Z,1.90
2022-09-18T23:39:33.807Z,2.03
2022-09-18T23:42:05.711Z,1.77
2022-09-18T23:44:35.571Z,3.63
2022-09-18T23:47:04.785Z,2.47
2022-09-18T23:49:33.447Z,1.97
2022-09-18T23:52:02.534Z,3.97
2022-09-18T23:54:32.979Z,2.77
2022-09-18T23:57:02.136Z,2.97
2022-09-18T23:59:30.562Z,2.67
